sensor_id;sensor_type;location;lat;lon;timestamp;P1;durP1;ratioP1;P2;durP2;ratioP2
8435;SDS011;4255;48.730;9.156;2022-12-13T00:00:07;47.77;;;22.70;;
8435;SDS011;4255;48.730;9.156;2022-12-13T00:02:38;45.90;;;26.45;;
8435;SDS011;4255;48.730;9.156;2022-12-13T00:05:05;40.58;;;19.77;;
8435;SDS011;4255;48.730;9.156;2022-12-13T00:07:31;47.50;;;25.03;;
8435;SDS011;4255;48.730;9.156;2022-12-13T00:09:58;43.35;;;22.80;;
8435;SDS011;4255;48.730;9.156;2022-12-13T00:12:24;50.87;;;25.67;;
8435;SDS011;4255;48.730;9.156;2022-12-13T00:14:49;41.63;;;22.00;;
8435;SDS011;4255;48.730;9.156;2022-12-13T00:17:15;45.80;;;21.87;;
8435;SDS011;4255;48.730;9.156;2022-12-13T00:19:40;35.20;;;20.50;;
8435;SDS011;4255;48.730;9.156;2022-12-13T00:22:06;39.00;;;19.90;;
8435;SDS011;4255;48.730;9.156;2022-12-13T00:24:31;45.13;;;20.70;;
8435;SDS011;4255;48.730;9.156;2022-12-13T00:26:57;33.60;;;21.00;;
8435;SDS011;4255;48.730;9.156;2022-12-13T00:29:23;38.30;;;22.10;;
8435;SDS011;4255;48.730;9.156;2022-12-13T00:31:48;39.03;;;20.43;;
8435;SDS011;4255;48.730;9.156;2022-12-13T00:34:14;38.00;;;22.50;;
8435;SDS011;4255;48.730;9.156;2022-12-13T00:36:39;52.67;;;23.30;;
8435;SDS011;4255;48.730;9.156;2022-12-13T00:39:05;45.97;;;23.13;;
8435;SDS011;4255;48.730;9.156;2022-12-13T00:41:32;49.50;;;25.40;;
8435;SDS011;4255;48.730;9.156;2022-12-13T00:44:00;43.95;;;23.63;;
8435;SDS011;4255;48.730;9.156;2022-12-13T00:46:27;38.92;;;22.70;;
8435;SDS011;4255;48.730;9.156;2022-12-13T00:48:53;47.45;;;25.73;;
8435;SDS011;4255;48.730;9.156;2022-12-13T00:51:22;44.47;;;21.92;;
8435;SDS011;4255;48.730;9.156;2022-12-13T00:53:49;45.65;;;22.70;;
8435;SDS011;4255;48.730;9.156;2022-12-13T00:56:16;36.57;;;20.90;;
8435;SDS011;4255;48.730;9.156;2022-12-13T00:58:45;47.63;;;22.35;;
8435;SDS011;4255;48.730;9.156;2022-12-13T01:01:12;54.17;;;24.48;;
8435;SDS011;4255;48.730;9.156;2022-12-13T01:03:39;47.33;;;22.17;;
8435;SDS011;4255;48.730;9.156;2022-12-13T01:08:39;44.88;;;23.73;;
8435;SDS011;4255;48.730;9.156;2022-12-13T01:11:05;43.77;;;23.80;;
8435;SDS011;4255;48.730;9.156;2022-12-13T01:13:31;47.65;;;21.63;;
8435;SDS011;4255;48.730;9.156;2022-12-13T01:16:00;40.35;;;21.75;;
8435;SDS011;4255;48.730;9.156;2022-12-13T01:18:27;39.95;;;22.48;;
8435;SDS011;4255;48.730;9.156;2022-12-13T01:23:47;39.67;;;20.35;;
8435;SDS011;4255;48.730;9.156;2022-12-13T01:26:14;39.63;;;20.95;;
8435;SDS011;4255;48.730;9.156;2022-12-13T01:28:42;43.42;;;23.92;;
8435;SDS011;4255;48.730;9.156;2022-12-13T01:31:09;37.97;;;20.70;;
8435;SDS011;4255;48.730;9.156;2022-12-13T01:33:37;40.13;;;22.83;;
8435;SDS011;4255;48.730;9.156;2022-12-13T01:36:03;42.78;;;20.50;;
8435;SDS011;4255;48.730;9.156;2022-12-13T01:38:31;42.92;;;21.70;;
8435;SDS011;4255;48.730;9.156;2022-12-13T01:40:56;39.30;;;20.53;;
8435;SDS011;4255;48.730;9.156;2022-12-13T01:43:23;48.10;;;24.30;;
8435;SDS011;4255;48.730;9.156;2022-12-13T01:45:53;42.20;;;19.98;;
8435;SDS011;4255;48.730;9.156;2022-12-13T01:48:20;42.43;;;22.13;;
8435;SDS011;4255;48.730;9.156;2022-12-13T01:50:50;42.03;;;24.20;;
8435;SDS011;4255;48.730;9.156;2022-12-13T01:53:21;40.67;;;22.02;;
8435;SDS011;4255;48.730;9.156;2022-12-13T01:55:52;46.00;;;22.40;;
8435;SDS011;4255;48.730;9.156;2022-12-13T01:58:20;40.53;;;23.05;;
8435;SDS011;4255;48.730;9.156;2022-12-13T02:00:46;41.15;;;21.23;;
8435;SDS011;4255;48.730;9.156;2022-12-13T02:03:13;47.00;;;21.92;;
8435;SDS011;4255;48.730;9.156;2022-12-13T02:05:47;44.30;;;22.48;;
8435;SDS011;4255;48.730;9.156;2022-12-13T02:08:20;41.38;;;21.63;;
8435;SDS011;4255;48.730;9.156;2022-12-13T02:10:47;48.35;;;24.38;;
8435;SDS011;4255;48.730;9.156;2022-12-13T02:13:12;53.97;;;21.70;;
8435;SDS011;4255;48.730;9.156;2022-12-13T02:21:16;46.97;;;22.45;;
8435;SDS011;4255;48.730;9.156;2022-12-13T02:35:19;41.35;;;24.70;;
8435;SDS011;4255;48.730;9.156;2022-12-13T02:38:17;44.90;;;22.58;;
8435;SDS011;4255;48.730;9.156;2022-12-13T02:43:28;45.38;;;23.63;;
8435;SDS011;4255;48.730;9.156;2022-12-13T02:45:58;41.10;;;24.35;;
8435;SDS011;4255;48.730;9.156;2022-12-13T02:48:27;41.70;;;21.88;;
8435;SDS011;4255;48.730;9.156;2022-12-13T02:50:55;43.60;;;21.90;;
8435;SDS011;4255;48.730;9.156;2022-12-13T02:53:23;38.83;;;21.50;;
8435;SDS011;4255;48.730;9.156;2022-12-13T02:55:50;38.13;;;20.70;;
8435;SDS011;4255;48.730;9.156;2022-12-13T02:58:17;33.97;;;20.63;;
8435;SDS011;4255;48.730;9.156;2022-12-13T03:03:31;45.53;;;20.35;;
8435;SDS011;4255;48.730;9.156;2022-12-13T03:12:00;32.47;;;16.65;;
8435;SDS011;4255;48.730;9.156;2022-12-13T03:17:42;26.73;;;16.52;;
8435;SDS011;4255;48.730;9.156;2022-12-13T03:20:17;31.77;;;16.67;;
8435;SDS011;4255;48.730;9.156;2022-12-13T03:22:48;35.58;;;17.65;;
8435;SDS011;4255;48.730;9.156;2022-12-13T03:25:14;35.20;;;17.40;;
8435;SDS011;4255;48.730;9.156;2022-12-13T03:27:39;30.37;;;18.07;;
8435;SDS011;4255;48.730;9.156;2022-12-13T03:30:05;38.20;;;17.50;;
8435;SDS011;4255;48.730;9.156;2022-12-13T03:32:31;29.27;;;16.35;;
8435;SDS011;4255;48.730;9.156;2022-12-13T03:34:57;37.17;;;16.67;;
8435;SDS011;4255;48.730;9.156;2022-12-13T03:37:22;31.37;;;16.10;;
8435;SDS011;4255;48.730;9.156;2022-12-13T03:39:48;32.97;;;17.70;;
8435;SDS011;4255;48.730;9.156;2022-12-13T03:42:14;23.43;;;15.30;;
8435;SDS011;4255;48.730;9.156;2022-12-13T03:44:40;29.45;;;13.95;;
8435;SDS011;4255;48.730;9.156;2022-12-13T03:47:05;33.97;;;16.17;;
8435;SDS011;4255;48.730;9.156;2022-12-13T03:49:31;32.53;;;16.30;;
8435;SDS011;4255;48.730;9.156;2022-12-13T03:51:56;25.00;;;15.43;;
8435;SDS011;4255;48.730;9.156;2022-12-13T03:54:22;37.13;;;16.03;;
8435;SDS011;4255;48.730;9.156;2022-12-13T03:56:47;27.80;;;16.50;;
8435;SDS011;4255;48.730;9.156;2022-12-13T03:59:13;26.00;;;14.97;;
8435;SDS011;4255;48.730;9.156;2022-12-13T04:01:39;27.40;;;15.03;;
8435;SDS011;4255;48.730;9.156;2022-12-13T04:04:04;34.80;;;14.27;;
8435;SDS011;4255;48.730;9.156;2022-12-13T04:06:30;22.23;;;12.97;;
8435;SDS011;4255;48.730;9.156;2022-12-13T04:08:55;24.20;;;14.47;;
8435;SDS011;4255;48.730;9.156;2022-12-13T04:11:21;26.60;;;16.73;;
8435;SDS011;4255;48.730;9.156;2022-12-13T04:14:05;22.05;;;14.10;;
8435;SDS011;4255;48.730;9.156;2022-12-13T04:16:31;29.83;;;15.57;;
8435;SDS011;4255;48.730;9.156;2022-12-13T04:18:57;27.13;;;14.23;;
8435;SDS011;4255;48.730;9.156;2022-12-13T04:21:22;24.57;;;14.80;;
8435;SDS011;4255;48.730;9.156;2022-12-13T04:23:48;25.30;;;14.20;;
8435;SDS011;4255;48.730;9.156;2022-12-13T04:26:13;26.00;;;14.20;;
8435;SDS011;4255;48.730;9.156;2022-12-13T04:28:39;23.37;;;12.77;;
8435;SDS011;4255;48.730;9.156;2022-12-13T04:31:05;20.77;;;13.87;;
8435;SDS011;4255;48.730;9.156;2022-12-13T04:33:30;24.03;;;12.67;;
8435;SDS011;4255;48.730;9.156;2022-12-13T04:35:57;24.73;;;15.27;;
8435;SDS011;4255;48.730;9.156;2022-12-13T04:38:22;20.90;;;13.20;;
8435;SDS011;4255;48.730;9.156;2022-12-13T04:40:48;23.90;;;13.83;;
8435;SDS011;4255;48.730;9.156;2022-12-13T04:43:14;23.47;;;13.80;;
8435;SDS011;4255;48.730;9.156;2022-12-13T04:45:40;25.67;;;14.00;;
8435;SDS011;4255;48.730;9.156;2022-12-13T04:48:05;11.97;;;8.97;;
8435;SDS011;4255;48.730;9.156;2022-12-13T04:50:31;25.37;;;14.60;;
8435;SDS011;4255;48.730;9.156;2022-12-13T04:52:57;33.93;;;18.47;;
8435;SDS011;4255;48.730;9.156;2022-12-13T04:55:22;25.50;;;15.80;;
8435;SDS011;4255;48.730;9.156;2022-12-13T04:57:48;25.63;;;14.53;;
8435;SDS011;4255;48.730;9.156;2022-12-13T05:00:13;22.13;;;12.90;;
8435;SDS011;4255;48.730;9.156;2022-12-13T05:02:40;29.95;;;15.70;;
8435;SDS011;4255;48.730;9.156;2022-12-13T05:05:09;24.25;;;14.07;;
8435;SDS011;4255;48.730;9.156;2022-12-13T05:07:35;23.52;;;14.30;;
8435;SDS011;4255;48.730;9.156;2022-12-13T05:10:01;26.42;;;14.80;;
8435;SDS011;4255;48.730;9.156;2022-12-13T05:12:27;18.77;;;12.85;;
8435;SDS011;4255;48.730;9.156;2022-12-13T05:14:53;29.30;;;14.53;;
8435;SDS011;4255;48.730;9.156;2022-12-13T05:17:19;28.40;;;15.50;;
8435;SDS011;4255;48.730;9.156;2022-12-13T05:19:45;19.13;;;11.05;;
8435;SDS011;4255;48.730;9.156;2022-12-13T05:22:10;20.13;;;12.30;;
8435;SDS011;4255;48.730;9.156;2022-12-13T05:24:40;23.42;;;13.90;;
8435;SDS011;4255;48.730;9.156;2022-12-13T05:27:09;23.92;;;14.02;;
8435;SDS011;4255;48.730;9.156;2022-12-13T05:29:35;27.38;;;12.52;;
8435;SDS011;4255;48.730;9.156;2022-12-13T05:32:01;21.40;;;12.40;;
8435;SDS011;4255;48.730;9.156;2022-12-13T05:34:28;26.83;;;15.23;;
8435;SDS011;4255;48.730;9.156;2022-12-13T05:36:53;25.80;;;13.67;;
8435;SDS011;4255;48.730;9.156;2022-12-13T05:39:19;17.83;;;13.67;;
8435;SDS011;4255;48.730;9.156;2022-12-13T05:41:45;21.53;;;13.20;;
8435;SDS011;4255;48.730;9.156;2022-12-13T05:44:10;18.37;;;10.70;;
8435;SDS011;4255;48.730;9.156;2022-12-13T05:46:37;23.05;;;13.68;;
8435;SDS011;4255;48.730;9.156;2022-12-13T05:49:03;25.47;;;13.80;;
8435;SDS011;4255;48.730;9.156;2022-12-13T05:51:28;19.53;;;12.00;;
8435;SDS011;4255;48.730;9.156;2022-12-13T05:53:54;26.17;;;13.10;;
8435;SDS011;4255;48.730;9.156;2022-12-13T05:56:19;26.07;;;13.77;;
8435;SDS011;4255;48.730;9.156;2022-12-13T05:58:45;22.33;;;13.50;;
8435;SDS011;4255;48.730;9.156;2022-12-13T06:01:12;22.13;;;12.63;;
8435;SDS011;4255;48.730;9.156;2022-12-13T06:03:39;25.10;;;12.65;;
8435;SDS011;4255;48.730;9.156;2022-12-13T06:06:06;19.52;;;13.63;;
8435;SDS011;4255;48.730;9.156;2022-12-13T06:08:33;28.13;;;14.38;;
8435;SDS011;4255;48.730;9.156;2022-12-13T06:10:59;25.25;;;14.90;;
8435;SDS011;4255;48.730;9.156;2022-12-13T06:13:26;28.90;;;15.05;;
8435;SDS011;4255;48.730;9.156;2022-12-13T06:15:52;30.77;;;16.90;;
8435;SDS011;4255;48.730;9.156;2022-12-13T06:18:18;34.10;;;19.25;;
8435;SDS011;4255;48.730;9.156;2022-12-13T06:20:44;30.80;;;13.80;;
8435;SDS011;4255;48.730;9.156;2022-12-13T06:23:11;28.52;;;14.60;;
8435;SDS011;4255;48.730;9.156;2022-12-13T06:25:37;26.70;;;13.25;;
8435;SDS011;4255;48.730;9.156;2022-12-13T06:28:03;30.23;;;13.37;;
8435;SDS011;4255;48.730;9.156;2022-12-13T06:30:29;22.37;;;11.77;;
8435;SDS011;4255;48.730;9.156;2022-12-13T06:32:55;27.13;;;13.80;;
8435;SDS011;4255;48.730;9.156;2022-12-13T06:35:20;38.97;;;16.50;;
8435;SDS011;4255;48.730;9.156;2022-12-13T06:37:50;32.45;;;16.40;;
8435;SDS011;4255;48.730;9.156;2022-12-13T06:40:16;26.35;;;14.05;;
8435;SDS011;4255;48.730;9.156;2022-12-13T06:42:42;27.87;;;14.77;;
8435;SDS011;4255;48.730;9.156;2022-12-13T06:45:07;22.50;;;12.83;;
8435;SDS011;4255;48.730;9.156;2022-12-13T06:47:33;25.60;;;11.93;;
8435;SDS011;4255;48.730;9.156;2022-12-13T06:49:59;22.03;;;13.87;;
8435;SDS011;4255;48.730;9.156;2022-12-13T06:52:25;28.33;;;13.00;;
8435;SDS011;4255;48.730;9.156;2022-12-13T06:54:50;25.57;;;13.13;;
8435;SDS011;4255;48.730;9.156;2022-12-13T06:57:16;20.87;;;13.40;;
8435;SDS011;4255;48.730;9.156;2022-12-13T06:59:42;19.70;;;12.10;;
8435;SDS011;4255;48.730;9.156;2022-12-13T07:02:07;26.70;;;13.20;;
8435;SDS011;4255;48.730;9.156;2022-12-13T07:04:33;24.53;;;12.50;;
8435;SDS011;4255;48.730;9.156;2022-12-13T07:06:58;24.20;;;13.00;;
8435;SDS011;4255;48.730;9.156;2022-12-13T07:09:24;22.67;;;12.47;;
8435;SDS011;4255;48.730;9.156;2022-12-13T07:11:50;21.77;;;12.83;;
8435;SDS011;4255;48.730;9.156;2022-12-13T07:14:15;21.47;;;13.07;;
8435;SDS011;4255;48.730;9.156;2022-12-13T07:16:41;24.67;;;14.55;;
8435;SDS011;4255;48.730;9.156;2022-12-13T07:19:08;25.67;;;16.50;;
8435;SDS011;4255;48.730;9.156;2022-12-13T07:21:35;27.85;;;14.68;;
8435;SDS011;4255;48.730;9.156;2022-12-13T07:24:02;25.27;;;13.57;;
8435;SDS011;4255;48.730;9.156;2022-12-13T07:26:28;21.33;;;12.00;;
8435;SDS011;4255;48.730;9.156;2022-12-13T07:28:53;24.40;;;12.03;;
8435;SDS011;4255;48.730;9.156;2022-12-13T07:31:19;20.10;;;11.97;;
8435;SDS011;4255;48.730;9.156;2022-12-13T07:33:45;20.87;;;12.53;;
8435;SDS011;4255;48.730;9.156;2022-12-13T07:36:12;20.13;;;11.80;;
8435;SDS011;4255;48.730;9.156;2022-12-13T07:38:39;22.00;;;12.02;;
8435;SDS011;4255;48.730;9.156;2022-12-13T07:41:05;16.58;;;10.20;;
8435;SDS011;4255;48.730;9.156;2022-12-13T07:43:31;30.67;;;15.20;;
8435;SDS011;4255;48.730;9.156;2022-12-13T07:45:58;28.70;;;12.80;;
8435;SDS011;4255;48.730;9.156;2022-12-13T07:48:25;25.15;;;13.60;;
8435;SDS011;4255;48.730;9.156;2022-12-13T07:50:51;23.15;;;12.27;;
8435;SDS011;4255;48.730;9.156;2022-12-13T07:53:17;17.50;;;12.18;;
8435;SDS011;4255;48.730;9.156;2022-12-13T07:55:43;23.60;;;14.43;;
8435;SDS011;4255;48.730;9.156;2022-12-13T07:58:09;22.87;;;13.37;;
8435;SDS011;4255;48.730;9.156;2022-12-13T08:00:37;24.65;;;14.25;;
8435;SDS011;4255;48.730;9.156;2022-12-13T08:03:04;16.83;;;12.48;;
8435;SDS011;4255;48.730;9.156;2022-12-13T08:05:31;26.65;;;13.45;;
8435;SDS011;4255;48.730;9.156;2022-12-13T08:07:58;19.80;;;12.35;;
8435;SDS011;4255;48.730;9.156;2022-12-13T08:10:24;22.55;;;13.63;;
8435;SDS011;4255;48.730;9.156;2022-12-13T08:12:49;32.53;;;13.93;;
8435;SDS011;4255;48.730;9.156;2022-12-13T08:15:15;30.67;;;18.87;;
8435;SDS011;4255;48.730;9.156;2022-12-13T08:17:41;33.22;;;16.50;;
8435;SDS011;4255;48.730;9.156;2022-12-13T08:20:07;31.37;;;16.33;;
8435;SDS011;4255;48.730;9.156;2022-12-13T08:22:33;23.42;;;13.25;;
8435;SDS011;4255;48.730;9.156;2022-12-13T08:24:59;37.63;;;15.90;;
8435;SDS011;4255;48.730;9.156;2022-12-13T08:27:25;27.20;;;14.00;;
8435;SDS011;4255;48.730;9.156;2022-12-13T08:29:51;26.80;;;14.00;;
8435;SDS011;4255;48.730;9.156;2022-12-13T08:32:17;24.17;;;16.58;;
8435;SDS011;4255;48.730;9.156;2022-12-13T08:34:43;22.40;;;14.83;;
8435;SDS011;4255;48.730;9.156;2022-12-13T08:37:09;20.40;;;11.50;;
8435;SDS011;4255;48.730;9.156;2022-12-13T08:39:36;30.63;;;14.95;;
8435;SDS011;4255;48.730;9.156;2022-12-13T08:42:06;18.48;;;12.57;;
8435;SDS011;4255;48.730;9.156;2022-12-13T08:44:35;23.50;;;12.88;;
8435;SDS011;4255;48.730;9.156;2022-12-13T08:47:01;19.80;;;11.67;;
8435;SDS011;4255;48.730;9.156;2022-12-13T08:49:26;27.07;;;14.57;;
8435;SDS011;4255;48.730;9.156;2022-12-13T08:51:52;20.13;;;11.30;;
8435;SDS011;4255;48.730;9.156;2022-12-13T08:54:18;22.73;;;13.10;;
8435;SDS011;4255;48.730;9.156;2022-12-13T08:56:43;24.87;;;12.67;;
8435;SDS011;4255;48.730;9.156;2022-12-13T08:59:09;21.87;;;13.50;;
8435;SDS011;4255;48.730;9.156;2022-12-13T09:01:35;13.40;;;11.97;;
8435;SDS011;4255;48.730;9.156;2022-12-13T09:04:00;21.70;;;13.50;;
8435;SDS011;4255;48.730;9.156;2022-12-13T09:06:26;21.20;;;11.73;;
8435;SDS011;4255;48.730;9.156;2022-12-13T09:08:52;24.20;;;12.87;;
8435;SDS011;4255;48.730;9.156;2022-12-13T09:11:18;27.17;;;12.95;;
8435;SDS011;4255;48.730;9.156;2022-12-13T09:13:44;26.63;;;13.20;;
8435;SDS011;4255;48.730;9.156;2022-12-13T09:16:11;23.90;;;11.80;;
8435;SDS011;4255;48.730;9.156;2022-12-13T09:18:43;20.08;;;10.82;;
8435;SDS011;4255;48.730;9.156;2022-12-13T09:21:11;22.33;;;12.90;;
8435;SDS011;4255;48.730;9.156;2022-12-13T09:23:38;21.58;;;13.45;;
8435;SDS011;4255;48.730;9.156;2022-12-13T09:26:08;21.50;;;13.18;;
8435;SDS011;4255;48.730;9.156;2022-12-13T09:28:36;27.45;;;15.35;;
8435;SDS011;4255;48.730;9.156;2022-12-13T09:31:09;23.55;;;11.10;;
8435;SDS011;4255;48.730;9.156;2022-12-13T09:33:37;23.20;;;13.10;;
8435;SDS011;4255;48.730;9.156;2022-12-13T09:36:04;21.20;;;12.45;;
8435;SDS011;4255;48.730;9.156;2022-12-13T09:38:34;20.95;;;10.85;;
8435;SDS011;4255;48.730;9.156;2022-12-13T09:41:11;32.00;;;14.80;;
8435;SDS011;4255;48.730;9.156;2022-12-13T09:43:48;22.25;;;12.65;;
8435;SDS011;4255;48.730;9.156;2022-12-13T09:46:25;24.50;;;11.60;;
8435;SDS011;4255;48.730;9.156;2022-12-13T09:48:54;20.40;;;11.13;;
8435;SDS011;4255;48.730;9.156;2022-12-13T09:51:21;21.55;;;12.15;;
8435;SDS011;4255;48.730;9.156;2022-12-13T09:53:49;23.00;;;12.50;;
8435;SDS011;4255;48.730;9.156;2022-12-13T09:56:17;22.45;;;12.00;;
8435;SDS011;4255;48.730;9.156;2022-12-13T09:58:46;23.60;;;13.27;;
8435;SDS011;4255;48.730;9.156;2022-12-13T10:01:13;22.90;;;14.73;;
8435;SDS011;4255;48.730;9.156;2022-12-13T10:03:40;19.38;;;13.27;;
8435;SDS011;4255;48.730;9.156;2022-12-13T10:08:41;23.02;;;13.35;;
8435;SDS011;4255;48.730;9.156;2022-12-13T10:11:16;25.90;;;14.85;;
8435;SDS011;4255;48.730;9.156;2022-12-13T10:13:53;22.20;;;13.48;;
8435;SDS011;4255;48.730;9.156;2022-12-13T10:19:01;20.13;;;10.52;;
8435;SDS011;4255;48.730;9.156;2022-12-13T10:21:37;23.23;;;10.80;;
8435;SDS011;4255;48.730;9.156;2022-12-13T10:24:28;20.77;;;10.38;;
8435;SDS011;4255;48.730;9.156;2022-12-13T10:27:09;26.15;;;13.40;;
8435;SDS011;4255;48.730;9.156;2022-12-13T10:29:54;21.25;;;10.70;;
8435;SDS011;4255;48.730;9.156;2022-12-13T10:32:26;20.00;;;11.75;;
8435;SDS011;4255;48.730;9.156;2022-12-13T10:34:52;17.58;;;11.02;;
8435;SDS011;4255;48.730;9.156;2022-12-13T10:37:28;22.52;;;13.85;;
8435;SDS011;4255;48.730;9.156;2022-12-13T10:39:55;26.42;;;12.82;;
8435;SDS011;4255;48.730;9.156;2022-12-13T10:42:22;15.07;;;8.95;;
8435;SDS011;4255;48.730;9.156;2022-12-13T10:44:47;15.80;;;9.80;;
8435;SDS011;4255;48.730;9.156;2022-12-13T10:49:45;20.70;;;12.00;;
8435;SDS011;4255;48.730;9.156;2022-12-13T10:52:36;20.38;;;12.10;;
8435;SDS011;4255;48.730;9.156;2022-12-13T10:55:05;18.05;;;10.50;;
8435;SDS011;4255;48.730;9.156;2022-12-13T10:57:52;19.17;;;11.68;;
8435;SDS011;4255;48.730;9.156;2022-12-13T11:00:37;15.07;;;9.90;;
8435;SDS011;4255;48.730;9.156;2022-12-13T11:03:05;21.45;;;11.45;;
8435;SDS011;4255;48.730;9.156;2022-12-13T11:05:34;19.35;;;12.05;;
8435;SDS011;4255;48.730;9.156;2022-12-13T11:08:21;18.15;;;10.70;;
8435;SDS011;4255;48.730;9.156;2022-12-13T11:10:57;11.32;;;8.65;;
8435;SDS011;4255;48.730;9.156;2022-12-13T11:13:46;14.13;;;10.20;;
8435;SDS011;4255;48.730;9.156;2022-12-13T11:18:55;20.27;;;9.65;;
8435;SDS011;4255;48.730;9.156;2022-12-13T11:21:25;21.73;;;9.77;;
8435;SDS011;4255;48.730;9.156;2022-12-13T11:23:53;14.27;;;8.80;;
8435;SDS011;4255;48.730;9.156;2022-12-13T11:26:22;21.55;;;11.57;;
8435;SDS011;4255;48.730;9.156;2022-12-13T11:29:01;22.00;;;11.13;;
8435;SDS011;4255;48.730;9.156;2022-12-13T11:37:35;16.13;;;8.82;;
8435;SDS011;4255;48.730;9.156;2022-12-13T11:40:04;14.65;;;10.23;;
8435;SDS011;4255;48.730;9.156;2022-12-13T11:42:37;15.68;;;9.38;;
8435;SDS011;4255;48.730;9.156;2022-12-13T11:45:16;17.85;;;10.57;;
8435;SDS011;4255;48.730;9.156;2022-12-13T11:47:47;14.90;;;8.35;;
8435;SDS011;4255;48.730;9.156;2022-12-13T11:50:31;14.50;;;10.70;;
8435;SDS011;4255;48.730;9.156;2022-12-13T11:53:27;20.02;;;11.05;;
8435;SDS011;4255;48.730;9.156;2022-12-13T12:01:14;15.15;;;7.53;;
8435;SDS011;4255;48.730;9.156;2022-12-13T12:03:49;11.80;;;8.55;;
8435;SDS011;4255;48.730;9.156;2022-12-13T12:06:22;17.88;;;10.00;;
8435;SDS011;4255;48.730;9.156;2022-12-13T12:09:01;14.55;;;9.10;;
8435;SDS011;4255;48.730;9.156;2022-12-13T12:11:34;16.20;;;9.90;;
8435;SDS011;4255;48.730;9.156;2022-12-13T12:16:54;14.20;;;8.45;;
8435;SDS011;4255;48.730;9.156;2022-12-13T12:19:23;21.35;;;10.77;;
8435;SDS011;4255;48.730;9.156;2022-12-13T12:21:58;17.02;;;9.63;;
8435;SDS011;4255;48.730;9.156;2022-12-13T12:24:47;24.17;;;10.20;;
8435;SDS011;4255;48.730;9.156;2022-12-13T12:27:34;14.73;;;10.15;;
8435;SDS011;4255;48.730;9.156;2022-12-13T12:30:11;12.13;;;8.27;;
8435;SDS011;4255;48.730;9.156;2022-12-13T12:43:35;17.70;;;8.75;;
8435;SDS011;4255;48.730;9.156;2022-12-13T12:46:07;10.45;;;7.00;;
8435;SDS011;4255;48.730;9.156;2022-12-13T12:51:20;10.82;;;8.23;;
8435;SDS011;4255;48.730;9.156;2022-12-13T12:53:57;13.00;;;8.65;;
8435;SDS011;4255;48.730;9.156;2022-12-13T13:04:41;7.40;;;5.38;;
8435;SDS011;4255;48.730;9.156;2022-12-13T13:07:21;14.52;;;8.18;;
8435;SDS011;4255;48.730;9.156;2022-12-13T13:09:50;14.15;;;8.50;;
8435;SDS011;4255;48.730;9.156;2022-12-13T13:12:17;13.85;;;8.40;;
8435;SDS011;4255;48.730;9.156;2022-12-13T13:14:43;14.55;;;8.20;;
8435;SDS011;4255;48.730;9.156;2022-12-13T13:19:44;24.15;;;8.27;;
8435;SDS011;4255;48.730;9.156;2022-12-13T13:22:36;8.60;;;6.93;;
8435;SDS011;4255;48.730;9.156;2022-12-13T13:27:31;10.57;;;8.20;;
8435;SDS011;4255;48.730;9.156;2022-12-13T13:32:40;13.07;;;7.32;;
8435;SDS011;4255;48.730;9.156;2022-12-13T13:38:25;14.70;;;10.27;;
8435;SDS011;4255;48.730;9.156;2022-12-13T13:40:51;11.40;;;7.97;;
8435;SDS011;4255;48.730;9.156;2022-12-13T13:43:26;17.40;;;9.43;;
8435;SDS011;4255;48.730;9.156;2022-12-13T13:46:10;21.15;;;8.77;;
8435;SDS011;4255;48.730;9.156;2022-12-13T13:48:39;10.77;;;7.95;;
8435;SDS011;4255;48.730;9.156;2022-12-13T13:54:57;17.48;;;9.43;;
8435;SDS011;4255;48.730;9.156;2022-12-13T14:09:05;13.88;;;8.88;;
8435;SDS011;4255;48.730;9.156;2022-12-13T14:17:34;14.90;;;7.95;;
8435;SDS011;4255;48.730;9.156;2022-12-13T14:28:32;14.88;;;9.25;;
8435;SDS011;4255;48.730;9.156;2022-12-13T14:31:14;12.75;;;9.18;;
8435;SDS011;4255;48.730;9.156;2022-12-13T14:33:52;13.05;;;8.25;;
8435;SDS011;4255;48.730;9.156;2022-12-13T14:36:28;11.73;;;7.32;;
8435;SDS011;4255;48.730;9.156;2022-12-13T14:39:04;12.38;;;9.63;;
8435;SDS011;4255;48.730;9.156;2022-12-13T14:41:31;17.23;;;8.30;;
8435;SDS011;4255;48.730;9.156;2022-12-13T14:44:14;9.38;;;7.40;;
8435;SDS011;4255;48.730;9.156;2022-12-13T14:47:04;9.82;;;7.75;;
8435;SDS011;4255;48.730;9.156;2022-12-13T14:49:33;11.10;;;8.68;;
8435;SDS011;4255;48.730;9.156;2022-12-13T14:52:06;18.15;;;8.32;;
8435;SDS011;4255;48.730;9.156;2022-12-13T14:54:48;9.75;;;7.68;;
8435;SDS011;4255;48.730;9.156;2022-12-13T14:57:24;11.23;;;6.68;;
8435;SDS011;4255;48.730;9.156;2022-12-13T14:59:54;11.23;;;7.57;;
8435;SDS011;4255;48.730;9.156;2022-12-13T15:02:23;10.68;;;7.95;;
8435;SDS011;4255;48.730;9.156;2022-12-13T15:04:57;14.07;;;8.02;;
8435;SDS011;4255;48.730;9.156;2022-12-13T15:07:25;13.85;;;8.38;;
8435;SDS011;4255;48.730;9.156;2022-12-13T15:10:49;14.07;;;9.82;;
8435;SDS011;4255;48.730;9.156;2022-12-13T15:12:52;16.92;;;11.25;;
8435;SDS011;4255;48.730;9.156;2022-12-13T15:15:29;20.27;;;12.48;;
8435;SDS011;4255;48.730;9.156;2022-12-13T15:18:06;15.68;;;11.63;;
8435;SDS011;4255;48.730;9.156;2022-12-13T15:20:41;16.80;;;9.63;;
8435;SDS011;4255;48.730;9.156;2022-12-13T15:25:35;12.73;;;9.13;;
8435;SDS011;4255;48.730;9.156;2022-12-13T15:28:02;19.98;;;10.10;;
8435;SDS011;4255;48.730;9.156;2022-12-13T15:30:29;15.57;;;10.02;;
8435;SDS011;4255;48.730;9.156;2022-12-13T15:33:04;24.40;;;12.98;;
8435;SDS011;4255;48.730;9.156;2022-12-13T15:35:39;21.33;;;12.25;;
8435;SDS011;4255;48.730;9.156;2022-12-13T15:38:05;18.53;;;11.03;;
8435;SDS011;4255;48.730;9.156;2022-12-13T15:40:42;16.48;;;12.20;;
8435;SDS011;4255;48.730;9.156;2022-12-13T15:43:13;13.55;;;10.13;;
8435;SDS011;4255;48.730;9.156;2022-12-13T15:45:45;21.20;;;11.63;;
8435;SDS011;4255;48.730;9.156;2022-12-13T15:48:20;17.13;;;9.45;;
8435;SDS011;4255;48.730;9.156;2022-12-13T15:53:33;20.17;;;10.77;;
8435;SDS011;4255;48.730;9.156;2022-12-13T15:56:00;12.30;;;8.98;;
8435;SDS011;4255;48.730;9.156;2022-12-13T15:58:35;18.10;;;9.90;;
8435;SDS011;4255;48.730;9.156;2022-12-13T16:01:01;16.10;;;10.73;;
8435;SDS011;4255;48.730;9.156;2022-12-13T16:03:33;17.67;;;11.15;;
8435;SDS011;4255;48.730;9.156;2022-12-13T16:06:07;20.90;;;11.45;;
8435;SDS011;4255;48.730;9.156;2022-12-13T16:08:34;19.67;;;12.20;;
8435;SDS011;4255;48.730;9.156;2022-12-13T16:11:03;20.95;;;11.65;;
8435;SDS011;4255;48.730;9.156;2022-12-13T16:13:31;30.05;;;13.10;;
8435;SDS011;4255;48.730;9.156;2022-12-13T16:16:00;16.05;;;11.07;;
8435;SDS011;4255;48.730;9.156;2022-12-13T16:18:50;22.23;;;12.10;;
8435;SDS011;4255;48.730;9.156;2022-12-13T16:21:17;18.60;;;11.73;;
8435;SDS011;4255;48.730;9.156;2022-12-13T16:23:43;20.93;;;11.00;;
8435;SDS011;4255;48.730;9.156;2022-12-13T16:26:12;20.50;;;12.30;;
8435;SDS011;4255;48.730;9.156;2022-12-13T16:28:38;20.00;;;12.60;;
8435;SDS011;4255;48.730;9.156;2022-12-13T16:33:47;18.23;;;11.75;;
8435;SDS011;4255;48.730;9.156;2022-12-13T16:36:13;22.75;;;13.25;;
8435;SDS011;4255;48.730;9.156;2022-12-13T16:38:39;17.42;;;11.68;;
8435;SDS011;4255;48.730;9.156;2022-12-13T16:41:04;19.97;;;10.33;;
8435;SDS011;4255;48.730;9.156;2022-12-13T16:43:31;25.52;;;11.02;;
8435;SDS011;4255;48.730;9.156;2022-12-13T16:45:59;17.58;;;10.93;;
8435;SDS011;4255;48.730;9.156;2022-12-13T16:48:27;19.10;;;10.00;;
8435;SDS011;4255;48.730;9.156;2022-12-13T16:50:53;15.57;;;10.13;;
8435;SDS011;4255;48.730;9.156;2022-12-13T16:53:19;16.57;;;11.80;;
8435;SDS011;4255;48.730;9.156;2022-12-13T16:55:45;14.83;;;9.63;;
8435;SDS011;4255;48.730;9.156;2022-12-13T16:58:11;17.73;;;9.43;;
8435;SDS011;4255;48.730;9.156;2022-12-13T17:00:38;18.25;;;9.48;;
8435;SDS011;4255;48.730;9.156;2022-12-13T17:03:04;12.40;;;8.90;;
8435;SDS011;4255;48.730;9.156;2022-12-13T17:05:31;16.00;;;9.98;;
8435;SDS011;4255;48.730;9.156;2022-12-13T17:07:59;15.55;;;9.32;;
8435;SDS011;4255;48.730;9.156;2022-12-13T17:10:25;19.07;;;11.63;;
8435;SDS011;4255;48.730;9.156;2022-12-13T17:12:51;16.77;;;9.90;;